Time;durP1;ratioP1;P1;durP2;ratioP2;P2;SDS_P1;SDS_P2;PMS_P1;PMS_P2;Temp;Humidity;BMP_temperature;BMP_pressure;BME280_temperature;BME280_humidity;BME280_pressure;Samples;Min_cycle;Max_cycle;Signal;HPM_P1;HPM_P2
2022/05/12 00:01:12;;;;;;;2.47;2.28;;;;;;;;;;5105286;28;20216;-68
2022/05/12 00:03:39;;;;;;;2.13;1.90;;;;;;;;;;5105079;28;20212;-68
2022/05/12 00:06:06;;;;;;;3.03;1.90;;;;;;;;;;5104906;28;20291;-68
2022/05/12 00:08:32;;;;;;;2.88;2.38;;;;;;;;;;5104970;28;20267;-68
2022/05/12 00:10:59;;;;;;;1.77;1.70;;;;;;;;;;5105217;28;20198;-68
2022/05/12 00:13:25;;;;;;;1.90;1.80;;;;;;;;;;5105221;28;20527;-68
2022/05/12 00:15:52;;;;;;;2.22;2.00;;;;;;;;;;5105031;28;20207;-68
2022/05/12 00:18:19;;;;;;;2.00;1.95;;;;;;;;;;5104663;28;20226;-68
2022/05/12 00:20:47;;;;;;;2.30;2.05;;;;;;;;;;5104762;28;20215;-68
2022/05/12 00:23:14;;;;;;;1.98;1.88;;;;;;;;;;5104777;28;20227;-68
2022/05/12 00:25:42;;;;;;;3.13;2.40;;;;;;;;;;5104744;28;20204;-68
2022/05/12 00:28:08;;;;;;;2.10;1.90;;;;;;;;;;5104512;28;20233;-68
2022/05/12 00:30:35;;;;;;;2.65;2.45;;;;;;;;;;5104745;28;20384;-68
2022/05/12 00:33:02;;;;;;;2.53;2.33;;;;;;;;;;5105037;28;20202;-68
2022/05/12 00:35:28;;;;;;;1.83;1.60;;;;;;;;;;5104580;28;20191;-68
2022/05/12 00:37:56;;;;;;;3.75;1.95;;;;;;;;;;5104229;28;20196;-68
2022/05/12 00:40:23;;;;;;;2.25;2.15;;;;;;;;;;5104408;28;20219;-68
2022/05/12 00:42:54;;;;;;;2.13;2.03;;;;;;;;;;5104448;28;20196;-68
2022/05/12 00:45:20;;;;;;;4.63;2.22;;;;;;;;;;5104439;28;20409;-68
2022/05/12 00:47:46;;;;;;;2.90;2.50;;;;;;;;;;5104108;28;20199;-68
2022/05/12 00:50:13;;;;;;;2.80;2.45;;;;;;;;;;5104252;28;20198;-68
2022/05/12 00:52:40;;;;;;;3.78;2.20;;;;;;;;;;5104520;28;20202;-68
2022/05/12 00:55:10;;;;;;;4.07;2.50;;;;;;;;;;5103348;28;20233;-68
2022/05/12 00:57:38;;;;;;;3.38;3.15;;;;;;;;;;5103792;28;20202;-68
2022/05/12 01:00:06;;;;;;;2.20;2.10;;;;;;;;;;5104008;28;20204;-68
2022/05/12 01:02:34;;;;;;;2.30;2.20;;;;;;;;;;5103258;28;20242;-68
2022/05/12 01:05:01;;;;;;;2.45;2.25;;;;;;;;;;5103736;28;20535;-68
2022/05/12 01:07:27;;;;;;;2.33;2.20;;;;;;;;;;5103783;28;20199;-68
2022/05/12 01:09:54;;;;;;;2.28;2.08;;;;;;;;;;5104186;28;20199;-68
2022/05/12 01:12:21;;;;;;;7.20;2.30;;;;;;;;;;5104008;28;20195;-68
2022/05/12 01:14:48;;;;;;;3.20;2.50;;;;;;;;;;5103826;28;20203;-68
2022/05/12 01:17:14;;;;;;;2.75;2.55;;;;;;;;;;5103693;28;20495;-68
2022/05/12 01:19:41;;;;;;;2.47;2.25;;;;;;;;;;5103644;28;20202;-68
2022/05/12 01:22:09;;;;;;;2.50;2.38;;;;;;;;;;5103615;28;20227;-68
2022/05/12 01:24:37;;;;;;;2.92;2.58;;;;;;;;;;5103477;28;20196;-68
2022/05/12 01:29:45;;;;;;;2.50;2.40;;;;;;;;;;5103339;28;20215;-68
2022/05/12 01:32:11;;;;;;;2.83;2.63;;;;;;;;;;5103460;28;20195;-68
2022/05/12 01:34:37;;;;;;;2.95;2.47;;;;;;;;;;5103425;28;20203;-68
2022/05/12 01:37:04;;;;;;;2.67;2.40;;;;;;;;;;5103027;28;20200;-68
2022/05/12 01:39:30;;;;;;;2.75;2.55;;;;;;;;;;5103560;28;20413;-68
2022/05/12 01:41:59;;;;;;;4.30;2.85;;;;;;;;;;5103102;28;20215;-68
2022/05/12 01:44:25;;;;;;;2.22;2.10;;;;;;;;;;5103409;28;20196;-68
2022/05/12 01:46:51;;;;;;;2.60;2.10;;;;;;;;;;5103040;28;20195;-68
2022/05/12 01:49:17;;;;;;;2.33;2.15;;;;;;;;;;5103118;28;20202;-68
2022/05/12 01:51:44;;;;;;;9.32;3.47;;;;;;;;;;5103096;28;20192;-68
2022/05/12 01:54:10;;;;;;;3.33;2.08;;;;;;;;;;5103276;28;20196;-68
2022/05/12 01:56:37;;;;;;;2.42;2.20;;;;;;;;;;5102726;28;20200;-69
2022/05/12 01:59:04;;;;;;;2.70;1.98;;;;;;;;;;5103067;28;20199;-68
2022/05/12 02:01:31;;;;;;;3.17;2.33;;;;;;;;;;5102097;28;20212;-68
2022/05/12 02:03:57;;;;;;;3.08;2.45;;;;;;;;;;5102659;28;20248;-68
2022/05/12 02:06:23;;;;;;;2.20;2.10;;;;;;;;;;5102829;28;20216;-68
2022/05/12 02:09:12;;;;;;;2.40;2.20;;;;;;;;;;5102500;28;20241;-68
2022/05/12 02:11:39;;;;;;;2.63;2.30;;;;;;;;;;5102502;28;20367;-68
2022/05/12 02:14:07;;;;;;;3.45;2.10;;;;;;;;;;5103033;28;20510;-68
2022/05/12 02:16:33;;;;;;;2.22;2.10;;;;;;;;;;5102623;28;20195;-68
2022/05/12 02:19:02;;;;;;;3.33;2.67;;;;;;;;;;5102661;28;20202;-68
2022/05/12 02:21:28;;;;;;;2.85;2.63;;;;;;;;;;5102519;28;20219;-68
2022/05/12 02:23:55;;;;;;;5.45;2.58;;;;;;;;;;5102576;28;20195;-68
2022/05/12 02:26:21;;;;;;;2.83;2.20;;;;;;;;;;5102343;28;20496;-68
2022/05/12 02:28:47;;;;;;;2.75;2.50;;;;;;;;;;5102660;28;20230;-68
2022/05/12 02:31:15;;;;;;;2.42;2.22;;;;;;;;;;5102628;28;20195;-68
2022/05/12 02:33:41;;;;;;;3.10;2.65;;;;;;;;;;5102397;28;20200;-68
2022/05/12 02:36:07;;;;;;;2.97;2.63;;;;;;;;;;5102136;28;20203;-68
2022/05/12 02:38:34;;;;;;;3.83;2.58;;;;;;;;;;5102526;28;20200;-68
2022/05/12 02:41:00;;;;;;;2.97;2.83;;;;;;;;;;5102333;28;20222;-68
2022/05/12 02:43:29;;;;;;;2.70;2.60;;;;;;;;;;5102483;28;20207;-68
2022/05/12 02:45:56;;;;;;;2.72;2.53;;;;;;;;;;5102405;28;20219;-68
2022/05/12 02:48:28;;;;;;;4.28;2.40;;;;;;;;;;5102397;28;20495;-68
2022/05/12 02:50:55;;;;;;;3.10;2.80;;;;;;;;;;5101930;28;20199;-68
2022/05/12 02:53:21;;;;;;;2.72;2.53;;;;;;;;;;5102416;28;20195;-68
2022/05/12 02:55:47;;;;;;;2.58;2.47;;;;;;;;;;5102384;28;20203;-68
2022/05/12 02:58:14;;;;;;;3.10;2.90;;;;;;;;;;5101973;28;20203;-68
2022/05/12 03:00:41;;;;;;;4.22;2.60;;;;;;;;;;5102078;28;20196;-68
2022/05/12 03:03:07;;;;;;;2.78;2.60;;;;;;;;;;5102139;28;20211;-68
2022/05/12 03:05:35;;;;;;;4.55;2.50;;;;;;;;;;5102239;28;20216;-68
2022/05/12 03:08:02;;;;;;;2.97;2.78;;;;;;;;;;5101812;28;20211;-68
2022/05/12 03:10:28;;;;;;;3.42;2.50;;;;;;;;;;5102219;28;20196;-68
2022/05/12 03:12:55;;;;;;;3.90;2.58;;;;;;;;;;5102107;28;20397;-68
2022/05/12 03:15:21;;;;;;;4.03;2.75;;;;;;;;;;5102070;28;20202;-68
2022/05/12 03:17:47;;;;;;;4.57;2.75;;;;;;;;;;5101855;28;20203;-68
2022/05/12 03:20:18;;;;;;;3.13;2.83;;;;;;;;;;5106177;28;20420;-68
2022/05/12 03:22:46;;;;;;;2.72;2.60;;;;;;;;;;5106038;28;20592;-68
2022/05/12 03:25:13;;;;;;;2.85;2.63;;;;;;;;;;5106065;28;20196;-68
2022/05/12 03:27:40;;;;;;;2.80;2.53;;;;;;;;;;5105703;28;20196;-68
2022/05/12 03:30:08;;;;;;;3.72;3.20;;;;;;;;;;5105760;28;20500;-68
2022/05/12 03:32:34;;;;;;;10.40;7.60;;;;;;;;;;5105645;28;20192;-68
2022/05/12 03:35:00;;;;;;;3.83;3.50;;;;;;;;;;5105910;28;20195;-68
2022/05/12 03:37:27;;;;;;;14.02;10.65;;;;;;;;;;5105608;28;20200;-68
2022/05/12 03:39:54;;;;;;;4.57;4.28;;;;;;;;;;5105691;28;20507;-68
2022/05/12 03:42:20;;;;;;;6.00;4.10;;;;;;;;;;5105628;28;20216;-68
2022/05/12 03:44:50;;;;;;;2.92;2.80;;;;;;;;;;5105529;28;20233;-68
2022/05/12 03:47:19;;;;;;;3.10;3.00;;;;;;;;;;5105443;28;20248;-68
2022/05/12 03:49:45;;;;;;;3.50;3.30;;;;;;;;;;5105642;28;20223;-68
2022/05/12 03:52:12;;;;;;;3.10;2.90;;;;;;;;;;5105491;28;20192;-68
2022/05/12 03:54:40;;;;;;;3.38;3.17;;;;;;;;;;5105282;28;20223;-68
2022/05/12 03:57:07;;;;;;;3.95;2.90;;;;;;;;;;5105049;28;20203;-68
2022/05/12 03:59:34;;;;;;;6.07;2.95;;;;;;;;;;5105254;28;20449;-68
2022/05/12 04:02:00;;;;;;;3.00;2.90;;;;;;;;;;5105193;28;20293;-68
2022/05/12 04:04:26;;;;;;;3.67;3.47;;;;;;;;;;5105124;28;20208;-68
2022/05/12 04:06:53;;;;;;;3.15;2.88;;;;;;;;;;5105127;28;20518;-68
2022/05/12 04:09:19;;;;;;;3.50;3.03;;;;;;;;;;5105050;28;20203;-68
2022/05/12 04:11:45;;;;;;;3.85;3.15;;;;;;;;;;5105020;28;20530;-68
2022/05/12 04:14:13;;;;;;;3.08;2.80;;;;;;;;;;5104911;28;20516;-68
2022/05/12 04:16:39;;;;;;;3.03;2.85;;;;;;;;;;5104805;28;20217;-68
2022/05/12 04:19:06;;;;;;;3.55;3.35;;;;;;;;;;5104859;28;20202;-68
2022/05/12 04:21:34;;;;;;;3.53;3.30;;;;;;;;;;5104824;28;20223;-68
2022/05/12 04:24:01;;;;;;;4.38;3.10;;;;;;;;;;5104765;28;20262;-68
2022/05/12 04:26:27;;;;;;;3.63;3.40;;;;;;;;;;5104853;28;20218;-69
2022/05/12 04:28:53;;;;;;;3.38;3.17;;;;;;;;;;5104831;28;20250;-69
2022/05/12 04:31:21;;;;;;;4.68;3.17;;;;;;;;;;5103672;28;20199;-68
2022/05/12 04:36:31;;;;;;;6.50;3.67;;;;;;;;;;5104296;28;20195;-68
2022/05/12 04:38:59;;;;;;;3.92;3.60;;;;;;;;;;5104487;28;20196;-68
2022/05/12 04:41:25;;;;;;;3.95;3.60;;;;;;;;;;5104354;28;20264;-68
2022/05/12 04:43:52;;;;;;;4.50;4.13;;;;;;;;;;5104554;28;20507;-68
2022/05/12 04:46:18;;;;;;;5.68;4.18;;;;;;;;;;5104432;28;20271;-68
2022/05/12 04:48:46;;;;;;;4.30;3.78;;;;;;;;;;5104411;28;20203;-68
2022/05/12 04:51:12;;;;;;;9.88;4.53;;;;;;;;;;5104165;28;20211;-68
2022/05/12 04:53:39;;;;;;;4.28;3.85;;;;;;;;;;5104094;28;20199;-68
2022/05/12 04:56:05;;;;;;;4.47;4.13;;;;;;;;;;5104189;28;20203;-68
2022/05/12 04:58:31;;;;;;;5.03;4.53;;;;;;;;;;5104263;28;20196;-68
2022/05/12 05:00:57;;;;;;;5.10;4.60;;;;;;;;;;5104063;28;20203;-68
2022/05/12 05:03:24;;;;;;;6.18;4.63;;;;;;;;;;5103899;28;20222;-68
2022/05/12 05:05:51;;;;;;;3.95;3.75;;;;;;;;;;5103814;28;20231;-68
2022/05/12 05:08:19;;;;;;;7.15;4.05;;;;;;;;;;5103734;28;20200;-68
2022/05/12 05:10:45;;;;;;;7.25;4.45;;;;;;;;;;5103926;28;20196;-68
2022/05/12 05:13:12;;;;;;;9.13;4.60;;;;;;;;;;5103900;28;20196;-68
2022/05/12 05:15:38;;;;;;;4.97;4.38;;;;;;;;;;5103883;28;20203;-68
2022/05/12 05:18:05;;;;;;;5.28;4.53;;;;;;;;;;5103692;28;20203;-68
2022/05/12 05:20:31;;;;;;;9.82;4.38;;;;;;;;;;5103641;28;20196;-68
2022/05/12 05:22:59;;;;;;;11.05;4.50;;;;;;;;;;5103447;28;20227;-68
2022/05/12 05:25:26;;;;;;;8.05;4.70;;;;;;;;;;5103831;28;20395;-68
2022/05/12 05:27:54;;;;;;;5.82;4.30;;;;;;;;;;5103470;28;20356;-68
2022/05/12 05:30:22;;;;;;;6.88;4.78;;;;;;;;;;5103458;28;20195;-68
2022/05/12 05:32:48;;;;;;;6.22;3.90;;;;;;;;;;5103599;28;20449;-68
2022/05/12 05:35:15;;;;;;;9.02;4.90;;;;;;;;;;5103325;28;20436;-68
2022/05/12 05:37:41;;;;;;;4.63;4.05;;;;;;;;;;5103169;28;20200;-68
2022/05/12 05:40:12;;;;;;;5.50;4.50;;;;;;;;;;5103391;28;20196;-68
2022/05/12 05:42:40;;;;;;;9.07;4.30;;;;;;;;;;5102858;28;20223;-69
2022/05/12 05:45:10;;;;;;;3.95;3.75;;;;;;;;;;5103065;28;20195;-68
2022/05/12 05:47:37;;;;;;;8.07;4.07;;;;;;;;;;5102724;28;20365;-68
2022/05/12 05:50:03;;;;;;;7.53;3.90;;;;;;;;;;5102760;28;20214;-68
2022/05/12 05:55:15;;;;;;;4.90;3.13;;;;;;;;;;5102841;28;20229;-69
2022/05/12 05:57:43;;;;;;;5.15;3.22;;;;;;;;;;5102578;28;20203;-69
2022/05/12 06:00:12;;;;;;;8.18;3.15;;;;;;;;;;5102570;28;20199;-68
2022/05/12 06:02:38;;;;;;;5.18;3.08;;;;;;;;;;5102664;28;20287;-68
2022/05/12 06:05:05;;;;;;;5.97;2.72;;;;;;;;;;5102688;28;20605;-68
2022/05/12 06:07:32;;;;;;;3.50;2.83;;;;;;;;;;5102416;28;20249;-68
2022/05/12 06:09:59;;;;;;;7.00;2.50;;;;;;;;;;5102470;28;20198;-68
2022/05/12 06:12:27;;;;;;;7.97;2.50;;;;;;;;;;5102344;28;20199;-68
2022/05/12 06:14:53;;;;;;;4.85;2.30;;;;;;;;;;5102566;28;20199;-68
2022/05/12 06:17:19;;;;;;;1.92;1.83;;;;;;;;;;5101919;28;20195;-68
2022/05/12 06:19:45;;;;;;;4.70;1.77;;;;;;;;;;5102109;28;20203;-69
2022/05/12 06:22:12;;;;;;;7.15;2.35;;;;;;;;;;5102129;28;20223;-69
2022/05/12 06:24:39;;;;;;;8.13;2.25;;;;;;;;;;5102432;28;20218;-68
2022/05/12 06:27:06;;;;;;;2.47;1.90;;;;;;;;;;5102090;28;20196;-68
2022/05/12 06:29:33;;;;;;;5.93;2.08;;;;;;;;;;5102142;28;20195;-68
2022/05/12 06:32:01;;;;;;;6.28;2.67;;;;;;;;;;5102781;28;20199;-69
2022/05/12 06:34:27;;;;;;;3.08;1.60;;;;;;;;;;5102298;28;20253;-69
2022/05/12 06:36:56;;;;;;;8.73;3.60;;;;;;;;;;5101927;28;20195;-69
2022/05/12 06:39:22;;;;;;;3.58;2.22;;;;;;;;;;5102250;28;20263;-69
2022/05/12 06:41:49;;;;;;;2.45;1.70;;;;;;;;;;5102154;28;20202;-69
2022/05/12 06:44:15;;;;;;;3.10;1.60;;;;;;;;;;5102017;28;20202;-68
2022/05/12 06:46:43;;;;;;;8.10;1.63;;;;;;;;;;5101865;28;20526;-69
2022/05/12 06:49:09;;;;;;;4.45;1.77;;;;;;;;;;5102222;28;20558;-69
2022/05/12 06:51:36;;;;;;;3.42;1.60;;;;;;;;;;5102366;28;20203;-69
2022/05/12 06:54:03;;;;;;;3.38;1.70;;;;;;;;;;5104290;28;20191;-69
2022/05/12 06:56:30;;;;;;;5.43;1.80;;;;;;;;;;5105995;28;20195;-69
2022/05/12 06:58:56;;;;;;;6.85;2.28;;;;;;;;;;5106424;28;20423;-69
2022/05/12 07:01:23;;;;;;;1.63;1.50;;;;;;;;;;5106284;28;20364;-69
2022/05/12 07:03:50;;;;;;;4.47;1.50;;;;;;;;;;5105938;28;20238;-69
2022/05/12 07:06:17;;;;;;;3.83;1.33;;;;;;;;;;5105483;28;20277;-61
2022/05/12 07:08:43;;;;;;;3.88;1.67;;;;;;;;;;5105558;28;20266;-61
2022/05/12 07:11:10;;;;;;;3.97;1.30;;;;;;;;;;5105385;28;20286;-61
2022/05/12 07:13:36;;;;;;;1.42;1.33;;;;;;;;;;5105696;28;20522;-61
2022/05/12 07:16:04;;;;;;;1.92;1.30;;;;;;;;;;5101256;28;20403;-61
2022/05/12 07:18:30;;;;;;;4.32;2.20;;;;;;;;;;5090615;28;20507;-64
2022/05/12 07:26:40;;;;;;;2.15;1.60;;;;;;;;;;5099137;28;20709;-62
2022/05/12 07:29:08;;;;;;;3.47;1.30;;;;;;;;;;5099031;28;20274;-62
2022/05/12 07:31:35;;;;;;;1.20;1.20;;;;;;;;;;5099598;28;20305;-64
2022/05/12 07:34:01;;;;;;;3.92;1.25;;;;;;;;;;5100117;28;20398;-64
2022/05/12 07:36:30;;;;;;;1.77;1.27;;;;;;;;;;5102235;28;20208;-64
2022/05/12 07:38:57;;;;;;;5.25;1.35;;;;;;;;;;5099106;28;20211;-64
2022/05/12 07:41:23;;;;;;;4.38;1.52;;;;;;;;;;5099306;28;20424;-62
2022/05/12 07:43:51;;;;;;;6.15;1.65;;;;;;;;;;5099226;28;20340;-62
2022/05/12 07:46:18;;;;;;;4.20;2.40;;;;;;;;;;5099108;28;20257;-62
2022/05/12 07:48:44;;;;;;;2.08;1.55;;;;;;;;;;5098305;28;20219;-61
2022/05/12 07:51:11;;;;;;;1.90;1.33;;;;;;;;;;5098937;28;20207;-62
2022/05/12 07:53:38;;;;;;;4.70;1.30;;;;;;;;;;5098843;28;20204;-62
2022/05/12 07:56:05;;;;;;;3.20;1.25;;;;;;;;;;5098689;28;20208;-63
2022/05/12 07:58:32;;;;;;;2.97;1.30;;;;;;;;;;5097950;28;20215;-63
2022/05/12 08:00:58;;;;;;;2.13;1.35;;;;;;;;;;5098723;28;20534;-63
2022/05/12 08:03:25;;;;;;;3.33;1.20;;;;;;;;;;5098598;28;20223;-63
2022/05/12 08:05:52;;;;;;;1.30;1.20;;;;;;;;;;5098270;28;20223;-61
2022/05/12 08:08:18;;;;;;;4.13;1.23;;;;;;;;;;5097958;28;20343;-62
2022/05/12 08:10:45;;;;;;;1.45;1.30;;;;;;;;;;5098412;28;20210;-63
2022/05/12 08:13:16;;;;;;;3.85;1.48;;;;;;;;;;5098674;28;20203;-62
2022/05/12 08:15:42;;;;;;;3.45;1.40;;;;;;;;;;5098399;28;20520;-61
2022/05/12 08:18:09;;;;;;;2.30;1.33;;;;;;;;;;5077632;28;20208;-61
2022/05/12 08:20:36;;;;;;;1.27;1.10;;;;;;;;;;5077803;28;20216;-61
2022/05/12 08:23:02;;;;;;;5.28;1.05;;;;;;;;;;5077990;28;20231;-61
2022/05/12 08:25:29;;;;;;;4.07;1.20;;;;;;;;;;5078227;28;20550;-61
2022/05/12 08:27:57;;;;;;;3.85;1.45;;;;;;;;;;5077439;28;20241;-61
2022/05/12 08:30:23;;;;;;;1.40;1.30;;;;;;;;;;5077923;28;20212;-61
2022/05/12 08:32:49;;;;;;;4.70;1.20;;;;;;;;;;5078302;28;20279;-61
2022/05/12 08:35:16;;;;;;;1.30;1.20;;;;;;;;;;5078022;28;20586;-61
2022/05/12 08:37:42;;;;;;;1.40;1.30;;;;;;;;;;5077382;28;20214;-61
2022/05/12 08:40:12;;;;;;;1.75;1.27;;;;;;;;;;5077599;28;20352;-61
2022/05/12 08:42:41;;;;;;;1.40;1.30;;;;;;;;;;5077290;28;20220;-61
2022/05/12 08:45:11;;;;;;;2.40;1.42;;;;;;;;;;5076914;28;20284;-61
2022/05/12 08:47:41;;;;;;;1.23;1.13;;;;;;;;;;5076417;28;20200;-61
2022/05/12 08:50:08;;;;;;;2.53;1.70;;;;;;;;;;5077353;28;20242;-61
2022/05/12 08:52:38;;;;;;;3.95;1.45;;;;;;;;;;5077655;28;20208;-62
2022/05/12 08:55:09;;;;;;;8.73;1.20;;;;;;;;;;5077583;28;20561;-62
2022/05/12 08:57:38;;;;;;;6.38;2.20;;;;;;;;;;5076978;28;20361;-62
2022/05/12 09:00:07;;;;;;;6.05;1.98;;;;;;;;;;5077206;28;20208;-62
2022/05/12 09:02:39;;;;;;;2.90;1.58;;;;;;;;;;5077325;28;20239;-62
2022/05/12 09:05:07;;;;;;;2.53;1.48;;;;;;;;;;5077220;28;20493;-62
2022/05/12 09:07:37;;;;;;;1.70;1.60;;;;;;;;;;5091402;28;20415;-62
2022/05/12 09:10:09;;;;;;;1.73;1.60;;;;;;;;;;5097437;28;20195;-62
2022/05/12 09:12:38;;;;;;;3.85;1.88;;;;;;;;;;5097490;28;20206;-63
2022/05/12 09:15:07;;;;;;;2.10;1.80;;;;;;;;;;5097396;28;20208;-62
2022/05/12 09:17:38;;;;;;;6.05;1.35;;;;;;;;;;5095947;28;20203;-63
2022/05/12 09:20:06;;;;;;;6.38;2.55;;;;;;;;;;5097182;28;20223;-63
2022/05/12 09:22:33;;;;;;;2.30;2.10;;;;;;;;;;5097171;28;20199;-63
2022/05/12 09:24:59;;;;;;;4.22;1.75;;;;;;;;;;5097166;28;20256;-62
2022/05/12 09:27:32;;;;;;;2.35;1.33;;;;;;;;;;5096183;28;20208;-62
2022/05/12 09:29:58;;;;;;;6.72;2.10;;;;;;;;;;5096415;28;20631;-62
2022/05/12 09:32:26;;;;;;;3.67;1.75;;;;;;;;;;5097100;28;20264;-62
2022/05/12 09:35:11;;;;;;;5.63;1.90;;;;;;;;;;5095728;28;20211;-62
2022/05/12 09:37:40;;;;;;;2.45;1.85;;;;;;;;;;5096849;28;20211;-61
2022/05/12 09:40:19;;;;;;;5.55;1.77;;;;;;;;;;5096824;28;20253;-62
2022/05/12 09:42:46;;;;;;;1.73;1.55;;;;;;;;;;5096547;28;20207;-62
2022/05/12 09:45:21;;;;;;;3.38;2.10;;;;;;;;;;5095857;28;20213;-62
2022/05/12 09:47:47;;;;;;;2.05;1.75;;;;;;;;;;5096250;28;20213;-62
2022/05/12 09:50:20;;;;;;;2.10;2.00;;;;;;;;;;5096308;28;20212;-62
2022/05/12 09:52:57;;;;;;;3.08;1.88;;;;;;;;;;5091756;28;20336;-62
2022/05/12 09:55:24;;;;;;;4.57;1.80;;;;;;;;;;5096381;28;20248;-61
2022/05/12 09:57:52;;;;;;;6.43;2.15;;;;;;;;;;5095817;28;20223;-61
2022/05/12 10:00:42;;;;;;;3.47;1.80;;;;;;;;;;5096406;28;20208;-61
2022/05/12 10:08:45;;;;;;;3.00;2.15;;;;;;;;;;5096672;28;20241;-61
2022/05/12 10:11:14;;;;;;;6.25;2.47;;;;;;;;;;5096752;28;20488;-61
2022/05/12 10:13:42;;;;;;;6.82;2.17;;;;;;;;;;5096761;28;20206;-62
2022/05/12 10:16:09;;;;;;;2.40;2.08;;;;;;;;;;5096536;28;20203;-62
2022/05/12 10:18:40;;;;;;;4.03;2.30;;;;;;;;;;5096456;28;20446;-62
2022/05/12 10:21:12;;;;;;;5.75;2.20;;;;;;;;;;5097075;28;20278;-63
2022/05/12 10:23:42;;;;;;;4.65;2.28;;;;;;;;;;5097715;28;20235;-63
2022/05/12 10:26:12;;;;;;;1.92;1.83;;;;;;;;;;5102630;28;20203;-71
2022/05/12 10:28:46;;;;;;;3.83;2.22;;;;;;;;;;5102415;28;20194;-71
2022/05/12 10:31:21;;;;;;;2.47;2.28;;;;;;;;;;5102421;28;20195;-71
2022/05/12 10:33:52;;;;;;;3.63;2.05;;;;;;;;;;5102454;28;20187;-72
2022/05/12 10:36:23;;;;;;;6.57;2.33;;;;;;;;;;5102492;28;20195;-71
2022/05/12 10:38:56;;;;;;;4.15;2.45;;;;;;;;;;5102581;28;20385;-72
2022/05/12 10:41:29;;;;;;;4.32;2.30;;;;;;;;;;5102577;28;20469;-72
2022/05/12 10:44:10;;;;;;;5.68;2.10;;;;;;;;;;5102488;28;20269;-70
2022/05/12 10:46:42;;;;;;;5.22;2.45;;;;;;;;;;5102159;28;20194;-71
2022/05/12 10:49:13;;;;;;;5.38;2.72;;;;;;;;;;5102407;28;20502;-71
2022/05/12 10:51:45;;;;;;;2.60;2.40;;;;;;;;;;5102369;28;20206;-71
2022/05/12 10:54:20;;;;;;;2.67;2.47;;;;;;;;;;5102254;28;20191;-71
2022/05/12 10:56:51;;;;;;;2.97;2.83;;;;;;;;;;5102223;28;20194;-71
2022/05/12 10:59:25;;;;;;;2.72;2.45;;;;;;;;;;5102165;28;20203;-71
2022/05/12 11:01:54;;;;;;;4.10;2.65;;;;;;;;;;5102268;28;20385;-70
2022/05/12 11:04:22;;;;;;;7.55;2.70;;;;;;;;;;5102086;28;20391;-72
2022/05/12 11:06:52;;;;;;;3.50;2.05;;;;;;;;;;5102162;28;20230;-72
2022/05/12 11:09:24;;;;;;;1.98;1.98;;;;;;;;;;5102163;28;20199;-72
2022/05/12 11:11:53;;;;;;;6.90;2.40;;;;;;;;;;5102229;28;20559;-72
2022/05/12 11:14:22;;;;;;;4.65;2.20;;;;;;;;;;5102130;28;20191;-72
2022/05/12 11:16:51;;;;;;;2.63;2.42;;;;;;;;;;5101750;28;20230;-72
2022/05/12 11:19:21;;;;;;;4.38;2.08;;;;;;;;;;5102249;28;20197;-71
2022/05/12 11:21:54;;;;;;;3.03;2.40;;;;;;;;;;5102007;28;20199;-71
2022/05/12 11:24:24;;;;;;;6.55;2.30;;;;;;;;;;5102032;28;20553;-72
2022/05/12 11:26:59;;;;;;;2.28;2.05;;;;;;;;;;5101757;28;20207;-71
2022/05/12 11:29:45;;;;;;;4.65;2.20;;;;;;;;;;5101891;28;20262;-71
2022/05/12 11:32:17;;;;;;;2.28;2.17;;;;;;;;;;5101969;28;20195;-72
2022/05/12 11:34:46;;;;;;;3.97;2.30;;;;;;;;;;5102051;28;20213;-71
2022/05/12 11:37:34;;;;;;;2.28;2.15;;;;;;;;;;5101832;28;20202;-71
2022/05/12 11:40:01;;;;;;;6.95;2.60;;;;;;;;;;5103714;28;20205;-70
2022/05/12 11:44:23;;;;;;;3.20;2.25;;;;;;;;;;5105881;28;20201;-71
2022/05/12 11:45:29;;;;;;;3.05;2.75;;;;;;;;;;5105525;28;20223;-71
2022/05/12 11:48:05;;;;;;;3.15;2.50;;;;;;;;;;5105414;28;20430;-71
2022/05/12 11:50:46;;;;;;;2.25;2.13;;;;;;;;;;5105488;28;20222;-71
2022/05/12 11:53:14;;;;;;;2.60;2.40;;;;;;;;;;5105541;28;20195;-71
2022/05/12 11:55:54;;;;;;;4.22;2.50;;;;;;;;;;5105442;28;20392;-71
2022/05/12 11:58:29;;;;;;;4.93;2.40;;;;;;;;;;5105122;28;20202;-71
2022/05/12 12:01:00;;;;;;;4.72;2.65;;;;;;;;;;5105240;28;20191;-71
2022/05/12 12:03:50;;;;;;;2.53;2.33;;;;;;;;;;5105068;28;20409;-71
2022/05/12 12:06:40;;;;;;;3.08;2.33;;;;;;;;;;5089435;28;20278;-71
2022/05/12 12:09:25;;;;;;;2.75;2.20;;;;;;;;;;5105609;28;20195;-71
2022/05/12 12:11:52;;;;;;;4.75;2.65;;;;;;;;;;5105230;28;20195;-71
2022/05/12 12:14:33;;;;;;;5.80;2.30;;;;;;;;;;5105177;28;20191;-71
2022/05/12 12:17:05;;;;;;;2.50;2.17;;;;;;;;;;5104504;28;20195;-71
2022/05/12 12:19:41;;;;;;;5.53;2.60;;;;;;;;;;5104909;28;20195;-71
2022/05/12 12:22:19;;;;;;;3.33;2.40;;;;;;;;;;5105150;28;20517;-71
2022/05/12 12:24:54;;;;;;;3.60;2.50;;;;;;;;;;5104808;28;20215;-71
2022/05/12 12:27:31;;;;;;;4.90;2.17;;;;;;;;;;5104378;28;20209;-71
2022/05/12 12:30:12;;;;;;;4.80;2.45;;;;;;;;;;5104667;28;20203;-71
2022/05/12 12:32:40;;;;;;;6.93;2.45;;;;;;;;;;5104575;28;20200;-71
2022/05/12 12:35:12;;;;;;;5.05;2.35;;;;;;;;;;5104804;28;20380;-71
2022/05/12 12:37:42;;;;;;;5.50;2.30;;;;;;;;;;5104459;28;20199;-71
2022/05/12 12:40:37;;;;;;;6.13;2.30;;;;;;;;;;5104462;28;20199;-71
2022/05/12 12:43:14;;;;;;;5.00;2.65;;;;;;;;;;5104753;28;20249;-71
2022/05/12 12:45:44;;;;;;;4.63;2.00;;;;;;;;;;5104531;28;20214;-71
2022/05/12 12:48:13;;;;;;;4.28;2.05;;;;;;;;;;5104299;28;20201;-71
2022/05/12 12:50:44;;;;;;;2.70;2.20;;;;;;;;;;5103173;28;20195;-71
2022/05/12 12:53:11;;;;;;;3.22;2.55;;;;;;;;;;5104460;28;20429;-71
2022/05/12 12:58:28;;;;;;;2.42;2.25;;;;;;;;;;5103992;28;20240;-71
2022/05/12 13:00:58;;;;;;;6.30;2.60;;;;;;;;;;5104128;28;20195;-71
2022/05/12 13:03:29;;;;;;;2.95;2.38;;;;;;;;;;5103877;28;20215;-71
2022/05/12 13:06:06;;;;;;;3.10;2.47;;;;;;;;;;5104191;28;20571;-71
2022/05/12 13:08:32;;;;;;;2.42;2.20;;;;;;;;;;5104125;28;20195;-71
2022/05/12 13:11:00;;;;;;;4.72;2.65;;;;;;;;;;5103824;28;20202;-71
2022/05/12 13:13:26;;;;;;;4.68;2.40;;;;;;;;;;5103902;28;20199;-71
2022/05/12 13:15:55;;;;;;;4.88;2.40;;;;;;;;;;5103595;28;20211;-71
2022/05/12 13:18:25;;;;;;;5.53;2.13;;;;;;;;;;5103898;28;20214;-71
2022/05/12 13:20:53;;;;;;;5.80;2.50;;;;;;;;;;5103882;28;20249;-71
2022/05/12 13:23:23;;;;;;;6.80;2.70;;;;;;;;;;5103776;28;20390;-71
2022/05/12 13:25:50;;;;;;;2.83;2.53;;;;;;;;;;5103193;28;20203;-71
2022/05/12 13:28:19;;;;;;;4.20;2.22;;;;;;;;;;5103313;28;20362;-71
2022/05/12 13:30:47;;;;;;;5.18;2.10;;;;;;;;;;5103526;28;20525;-71
2022/05/12 13:33:20;;;;;;;6.80;2.70;;;;;;;;;;5103608;28;20195;-71
2022/05/12 13:35:55;;;;;;;5.97;2.20;;;;;;;;;;5103502;28;20218;-71
2022/05/12 13:38:21;;;;;;;4.30;2.53;;;;;;;;;;5103035;28;20202;-71
2022/05/12 13:40:50;;;;;;;2.25;1.92;;;;;;;;;;5103153;28;20201;-71
2022/05/12 13:43:19;;;;;;;5.35;2.10;;;;;;;;;;5103043;28;20373;-71
2022/05/12 13:45:47;;;;;;;7.15;2.30;;;;;;;;;;5102730;28;20219;-71
2022/05/12 13:48:17;;;;;;;4.07;2.30;;;;;;;;;;5102630;28;20396;-71
2022/05/12 13:50:45;;;;;;;4.70;2.40;;;;;;;;;;5102715;28;20355;-71
2022/05/12 13:53:23;;;;;;;4.95;2.03;;;;;;;;;;5102616;28;20525;-71
2022/05/12 13:56:04;;;;;;;5.10;2.00;;;;;;;;;;5102583;28;20190;-71
2022/05/12 13:58:30;;;;;;;2.78;2.00;;;;;;;;;;5102619;28;20207;-71
2022/05/12 14:00:57;;;;;;;6.85;2.38;;;;;;;;;;5102732;28;20393;-71
2022/05/12 14:03:27;;;;;;;2.53;1.90;;;;;;;;;;5102150;28;20284;-71
2022/05/12 14:05:56;;;;;;;5.20;2.20;;;;;;;;;;5101999;28;20216;-71
2022/05/12 14:08:30;;;;;;;4.65;1.95;;;;;;;;;;5102472;28;20201;-71
2022/05/12 14:11:06;;;;;;;4.82;1.98;;;;;;;;;;5102453;28;20195;-71
2022/05/12 14:19:15;;;;;;;2.55;2.13;;;;;;;;;;5102256;28;20186;-71
2022/05/12 14:21:44;;;;;;;2.42;2.17;;;;;;;;;;5102368;28;20194;-71
2022/05/12 14:24:12;;;;;;;4.03;2.40;;;;;;;;;;5102388;28;20218;-71
2022/05/12 14:26:40;;;;;;;2.15;1.83;;;;;;;;;;5101763;28;20451;-71
2022/05/12 14:29:06;;;;;;;6.03;2.35;;;;;;;;;;5102323;28;20217;-71
2022/05/12 14:31:32;;;;;;;6.97;2.10;;;;;;;;;;5102259;28;20195;-71
2022/05/12 14:33:59;;;;;;;8.18;2.08;;;;;;;;;;5101991;28;20240;-71
2022/05/12 14:36:25;;;;;;;9.73;2.92;;;;;;;;;;5101962;28;20207;-71
2022/05/12 14:38:52;;;;;;;12.02;3.25;;;;;;;;;;5102012;28;20199;-71
2022/05/12 14:41:20;;;;;;;12.85;2.28;;;;;;;;;;5101848;28;20265;-71
2022/05/12 14:43:47;;;;;;;2.90;2.03;;;;;;;;;;5101879;28;20199;-71
2022/05/12 14:46:13;;;;;;;2.15;2.05;;;;;;;;;;5101544;28;20214;-71
2022/05/12 14:48:46;;;;;;;4.18;2.20;;;;;;;;;;5101984;28;20202;-71
2022/05/12 14:51:13;;;;;;;2.83;2.05;;;;;;;;;;5101923;28;20201;-71
2022/05/12 14:53:39;;;;;;;4.28;2.05;;;;;;;;;;5101730;28;20218;-71
2022/05/12 14:56:05;;;;;;;6.82;2.20;;;;;;;;;;5101942;28;20419;-71
2022/05/12 14:58:33;;;;;;;5.38;2.22;;;;;;;;;;5101826;28;20202;-71
2022/05/12 15:00:59;;;;;;;4.63;1.90;;;;;;;;;;5101684;28;20195;-71
2022/05/12 15:03:26;;;;;;;3.40;1.98;;;;;;;;;;5101543;28;20206;-71
2022/05/12 15:05:52;;;;;;;2.88;1.77;;;;;;;;;;5101417;28;20284;-71
2022/05/12 15:08:18;;;;;;;2.40;2.20;;;;;;;;;;5101366;28;20369;-71
2022/05/12 15:10:45;;;;;;;4.18;2.05;;;;;;;;;;5101860;28;20380;-71
2022/05/12 15:13:11;;;;;;;2.08;1.98;;;;;;;;;;5101834;28;20206;-71
2022/05/12 15:15:38;;;;;;;4.03;1.75;;;;;;;;;;5104888;28;20202;-71
2022/05/12 15:18:05;;;;;;;2.25;2.10;;;;;;;;;;5105292;28;20210;-71
2022/05/12 15:20:31;;;;;;;3.65;1.90;;;;;;;;;;5105604;28;20195;-71